Time;durP1;ratioP1;P1;durP2;ratioP2;P2;SDS_P1;SDS_P2;PMS_P1;PMS_P2;Temp;Humidity;BMP_temperature;BMP_pressure;BME280_temperature;BME280_humidity;BME280_pressure;Samples;Min_cycle;Max_cycle;Signal;HPM_P1;HPM_P2
2021/09/14 00:01:17;;;;;;;58.27;2.80;;;16.10;1.00;;;;;;5015551;28;20882;-71
2021/09/14 00:03:44;;;;;;;58.47;2.73;;;16.10;1.00;;;;;;5015080;28;20924;-71
2021/09/14 00:06:10;;;;;;;58.50;2.70;;;16.10;1.00;;;;;;5014579;28;20549;-70
2021/09/14 00:08:38;;;;;;;58.50;2.67;;;16.10;1.00;;;;;;5015062;28;20987;-71
2021/09/14 00:11:05;;;;;;;58.47;2.60;;;16.00;1.00;;;;;;5014658;28;20451;-71
2021/09/14 00:13:32;;;;;;;58.80;3.00;;;16.00;1.00;;;;;;5015077;28;20458;-71
2021/09/14 00:16:00;;;;;;;58.83;2.60;;;16.10;1.00;;;;;;5014240;28;20459;-70
2021/09/14 00:18:27;;;;;;;58.07;2.50;;;16.10;1.00;;;;;;5014987;28;21012;-70
2021/09/14 00:20:54;;;;;;;58.07;2.60;;;16.10;1.00;;;;;;5015020;28;20485;-70
2021/09/14 00:23:21;;;;;;;58.70;2.80;;;16.10;1.00;;;;;;5014588;28;20574;-70
2021/09/14 00:25:48;;;;;;;58.33;2.70;;;16.10;1.00;;;;;;5019277;28;20553;-70
2021/09/14 00:28:15;;;;;;;58.60;2.70;;;16.10;1.00;;;;;;5034398;28;20489;-70
2021/09/14 00:30:42;;;;;;;58.47;2.50;;;16.10;1.00;;;;;;5034132;28;20551;-70
2021/09/14 00:33:11;;;;;;;58.90;3.47;;;16.10;1.00;;;;;;5034509;28;20447;-70
2021/09/14 00:35:38;;;;;;;58.17;2.80;;;16.00;1.00;;;;;;5033760;28;20454;-70
2021/09/14 00:38:05;;;;;;;58.27;2.77;;;16.00;1.00;;;;;;5033729;28;20471;-70
2021/09/14 00:40:31;;;;;;;58.47;2.80;;;16.00;1.00;;;;;;5034706;28;20867;-70
2021/09/14 00:42:58;;;;;;;58.57;3.00;;;16.00;1.00;;;;;;5034054;28;20572;-70
2021/09/14 00:45:25;;;;;;;59.10;3.00;;;16.00;1.00;;;;;;5033826;28;20457;-71
2021/09/14 00:47:52;;;;;;;58.40;2.80;;;15.90;1.00;;;;;;5034228;28;20473;-71
2021/09/14 00:50:20;;;;;;;58.47;2.83;;;15.90;1.00;;;;;;5034705;28;20478;-71
2021/09/14 00:52:47;;;;;;;58.33;2.80;;;15.90;1.00;;;;;;5033608;28;20529;-70
2021/09/14 00:55:14;;;;;;;58.27;2.63;;;15.90;1.00;;;;;;5033929;28;20592;-70
2021/09/14 00:57:41;;;;;;;58.53;3.53;;;15.90;1.00;;;;;;5031433;28;20561;-70
2021/09/14 01:00:10;;;;;;;58.70;3.17;;;15.80;1.00;;;;;;5033746;28;20452;-70
2021/09/14 01:02:37;;;;;;;59.03;3.27;;;15.80;1.00;;;;;;5033556;28;21042;-70
2021/09/14 01:05:05;;;;;;;58.27;2.80;;;15.80;1.00;;;;;;5033136;28;20550;-70
2021/09/14 01:07:33;;;;;;;58.70;2.93;;;15.80;1.00;;;;;;5032537;28;20473;-70
2021/09/14 01:10:01;;;;;;;58.57;3.10;;;15.80;1.00;;;;;;5033914;28;20490;-70
2021/09/14 01:12:35;;;;;;;58.07;2.70;;;15.80;1.00;;;;;;5033178;28;20529;-70
2021/09/14 01:15:01;;;;;;;58.97;2.87;;;15.80;1.00;;;;;;5011973;28;20451;-70
2021/09/14 01:17:28;;;;;;;58.60;3.30;;;15.80;1.00;;;;;;5013779;28;20474;-70
2021/09/14 01:19:55;;;;;;;58.50;2.83;;;15.80;1.00;;;;;;5013723;28;20534;-70
2021/09/14 01:22:27;;;;;;;58.37;2.80;;;15.70;1.00;;;;;;5013700;28;20475;-70
2021/09/14 01:24:53;;;;;;;58.67;3.10;;;15.70;1.00;;;;;;5013729;28;20968;-70
2021/09/14 01:27:20;;;;;;;58.63;2.80;;;15.70;1.00;;;;;;5012970;28;20472;-70
2021/09/14 01:32:31;;;;;;;58.47;2.73;;;15.60;1.00;;;;;;5013201;28;20929;-70
2021/09/14 01:35:05;;;;;;;58.47;2.80;;;15.60;1.00;;;;;;5013378;28;20542;-70
2021/09/14 01:37:34;;;;;;;58.60;3.10;;;15.60;1.00;;;;;;5013298;28;20471;-71
2021/09/14 01:40:00;;;;;;;59.10;3.70;;;15.50;1.00;;;;;;5013047;28;20464;-70
2021/09/14 01:42:27;;;;;;;58.37;2.90;;;15.50;1.00;;;;;;5013444;28;20888;-70
2021/09/14 01:44:54;;;;;;;58.50;2.80;;;15.50;1.00;;;;;;5013137;28;20581;-70
2021/09/14 01:47:21;;;;;;;58.17;2.70;;;15.50;1.00;;;;;;5012991;28;20562;-70
2021/09/14 01:49:48;;;;;;;58.27;2.80;;;15.50;1.00;;;;;;5013340;28;20887;-70
2021/09/14 01:52:15;;;;;;;58.50;3.10;;;15.50;1.00;;;;;;5012954;28;20460;-70
2021/09/14 01:54:43;;;;;;;58.70;3.40;;;15.40;1.00;;;;;;5013143;28;20541;-70
2021/09/14 01:57:11;;;;;;;58.40;2.60;;;15.40;1.00;;;;;;5012596;28;20559;-70
2021/09/14 01:59:38;;;;;;;58.50;2.90;;;15.40;1.00;;;;;;5013110;28;20491;-70
2021/09/14 02:02:10;;;;;;;58.27;2.80;;;15.40;1.00;;;;;;5011757;28;20512;-70
2021/09/14 02:04:43;;;;;;;58.17;2.50;;;15.30;1.00;;;;;;5012761;28;20839;-70
2021/09/14 02:24:06;;;;;;;58.63;3.07;;;15.20;1.00;;;;;;5012624;28;20481;-71
2021/09/14 02:43:22;;;;;;;58.20;2.60;;;15.00;1.00;;;;;;5012652;28;20478;-71
2021/09/14 02:59:39;;;;;;;58.33;2.83;;;14.90;1.00;;;;;;5011762;28;20854;-71
2021/09/14 03:02:07;;;;;;;58.57;2.93;;;14.90;1.00;;;;;;5012245;28;20454;-71
2021/09/14 03:04:33;;;;;;;58.93;2.80;;;14.90;1.00;;;;;;5012125;28;20574;-71
2021/09/14 03:07:00;;;;;;;58.47;2.70;;;14.90;1.00;;;;;;5010069;28;20475;-71
2021/09/14 03:09:27;;;;;;;58.87;3.23;;;14.80;1.00;;;;;;5011387;28;20533;-71
2021/09/14 03:11:54;;;;;;;58.67;2.80;;;14.80;1.00;;;;;;5011608;28;20549;-71
2021/09/14 03:14:21;;;;;;;58.37;2.63;;;14.90;1.00;;;;;;5011945;28;20954;-71
2021/09/14 03:16:49;;;;;;;58.50;2.77;;;14.80;1.00;;;;;;5010956;28;20497;-70
2021/09/14 03:19:15;;;;;;;58.43;3.00;;;14.80;1.00;;;;;;5011743;28;20465;-70
2021/09/14 03:21:42;;;;;;;58.07;2.80;;;14.80;1.00;;;;;;5012104;28;20539;-71
2021/09/14 03:24:09;;;;;;;58.27;2.80;;;14.80;1.00;;;;;;5011430;28;20568;-71
2021/09/14 03:26:36;;;;;;;58.60;3.20;;;14.80;1.00;;;;;;5011483;28;20471;-71
2021/09/14 03:29:03;;;;;;;58.87;3.27;;;14.80;1.00;;;;;;5010973;28;20538;-71
2021/09/14 03:31:30;;;;;;;58.57;2.80;;;14.80;1.00;;;;;;5011664;28;20458;-70
2021/09/14 03:33:58;;;;;;;58.67;3.10;;;14.80;1.00;;;;;;5011556;28;20447;-70
2021/09/14 03:36:25;;;;;;;59.37;3.70;;;14.80;1.00;;;;;;5011317;28;21097;-70
2021/09/14 03:38:52;;;;;;;58.03;2.53;;;14.80;1.00;;;;;;5011542;28;20533;-70
2021/09/14 03:41:19;;;;;;;58.67;2.80;;;14.80;1.00;;;;;;5012110;28;20488;-70
2021/09/14 03:43:45;;;;;;;58.50;2.63;;;14.80;1.00;;;;;;5010339;28;20485;-70
2021/09/14 03:46:12;;;;;;;58.17;2.70;;;14.80;1.00;;;;;;5011088;28;20496;-70
2021/09/14 03:48:39;;;;;;;58.47;2.70;;;14.80;1.00;;;;;;5011428;28;21018;-70
2021/09/14 03:51:07;;;;;;;58.03;2.50;;;14.80;1.00;;;;;;5011077;28;20555;-70
2021/09/14 03:53:34;;;;;;;59.00;3.20;;;14.80;1.00;;;;;;5011309;28;20470;-70
2021/09/14 03:56:01;;;;;;;58.17;2.53;;;14.80;1.00;;;;;;5011024;28;20532;-70
2021/09/14 03:58:28;;;;;;;58.27;2.70;;;14.80;1.00;;;;;;5011161;28;20533;-70
2021/09/14 04:00:54;;;;;;;58.47;3.03;;;14.80;1.00;;;;;;5011784;28;20545;-70
2021/09/14 04:03:26;;;;;;;58.47;2.60;;;14.80;1.00;;;;;;5011428;28;20490;-70
2021/09/14 04:06:09;;;;;;;58.30;2.60;;;14.80;1.00;;;;;;5010803;28;20457;-70
2021/09/14 04:08:52;;;;;;;58.47;2.83;;;14.80;1.00;;;;;;5011220;28;20455;-70
2021/09/14 04:11:21;;;;;;;58.30;2.70;;;14.80;1.00;;;;;;5011144;28;20452;-70
2021/09/14 04:13:48;;;;;;;58.43;2.90;;;14.80;1.00;;;;;;5010738;28;20948;-70
2021/09/14 04:16:15;;;;;;;62.60;3.43;;;14.70;1.00;;;;;;5009282;28;20565;-70
2021/09/14 04:18:42;;;;;;;59.37;2.90;;;14.70;1.00;;;;;;5011123;28;20822;-70
2021/09/14 04:21:09;;;;;;;58.30;3.10;;;14.70;1.00;;;;;;5011244;28;20482;-70
2021/09/14 04:23:37;;;;;;;58.40;3.00;;;14.70;1.00;;;;;;5011366;28;20493;-70
2021/09/14 04:26:04;;;;;;;58.50;2.80;;;14.70;1.00;;;;;;5010759;28;20502;-70
2021/09/14 04:28:32;;;;;;;58.27;3.00;;;14.70;1.00;;;;;;5010719;28;20534;-70
2021/09/14 04:30:59;;;;;;;58.43;3.30;;;14.70;1.00;;;;;;5010764;28;20454;-70
2021/09/14 04:33:26;;;;;;;58.77;3.40;;;14.60;1.00;;;;;;5010814;28;20472;-70
2021/09/14 04:35:53;;;;;;;59.00;3.10;;;14.60;1.00;;;;;;5010519;28;20484;-70
2021/09/14 04:38:19;;;;;;;58.37;2.93;;;14.60;1.00;;;;;;5010639;28;20478;-70
2021/09/14 04:40:48;;;;;;;58.50;2.80;;;14.60;1.00;;;;;;5011744;28;20450;-70
2021/09/14 04:43:15;;;;;;;59.00;3.57;;;14.50;1.00;;;;;;5014452;28;20979;-70
2021/09/14 04:45:42;;;;;;;58.07;2.80;;;14.50;1.00;;;;;;5014018;28;20540;-70
2021/09/14 04:48:10;;;;;;;58.23;2.60;;;14.50;1.00;;;;;;5012715;28;20500;-70
2021/09/14 04:50:37;;;;;;;58.80;3.10;;;14.50;1.00;;;;;;5014010;28;20481;-70
2021/09/14 04:53:04;;;;;;;58.17;3.00;;;14.50;1.00;;;;;;5014163;28;20457;-71
2021/09/14 04:55:31;;;;;;;58.47;2.90;;;14.40;1.00;;;;;;5013708;28;21011;-71
2021/09/14 04:57:59;;;;;;;58.47;2.93;;;14.40;1.00;;;;;;5013704;28;20470;-71
2021/09/14 05:00:26;;;;;;;58.07;2.57;;;14.40;1.00;;;;;;5013878;28;20464;-71
2021/09/14 05:02:54;;;;;;;59.00;3.73;;;14.40;1.00;;;;;;5014635;28;20486;-71
2021/09/14 05:05:21;;;;;;;58.47;2.87;;;14.40;1.00;;;;;;5014036;28;20494;-71
2021/09/14 05:07:48;;;;;;;58.37;3.00;;;14.40;1.00;;;;;;5013794;28;20474;-71
2021/09/14 05:10:14;;;;;;;58.10;2.80;;;14.40;1.00;;;;;;5013595;28;20482;-71
2021/09/14 05:12:41;;;;;;;58.50;2.80;;;14.40;1.00;;;;;;5013711;28;20482;-71
2021/09/14 05:15:11;;;;;;;58.80;3.10;;;14.40;1.00;;;;;;5014065;28;20509;-70
2021/09/14 05:17:38;;;;;;;58.37;2.90;;;14.40;1.40;;;;;;5013613;28;20553;-70
2021/09/14 05:20:06;;;;;;;58.37;2.70;;;14.50;1.70;;;;;;5012189;28;20549;-70
2021/09/14 05:22:34;;;;;;;58.43;2.90;;;14.50;2.90;;;;;;5013761;28;20536;-70
2021/09/14 05:25:02;;;;;;;58.43;2.67;;;14.50;3.90;;;;;;5013613;28;20548;-71
2021/09/14 05:27:29;;;;;;;58.77;2.80;;;14.50;4.00;;;;;;5013284;28;20973;-71
2021/09/14 05:29:56;;;;;;;58.90;3.30;;;14.50;4.70;;;;;;5013325;28;20958;-71
2021/09/14 05:32:24;;;;;;;58.47;2.80;;;14.50;4.90;;;;;;5013980;28;20634;-71
2021/09/14 05:34:52;;;;;;;58.80;3.57;;;14.60;4.60;;;;;;5013206;28;20456;-71
2021/09/14 05:37:21;;;;;;;58.40;2.60;;;14.60;4.80;;;;;;5012870;28;20501;-71
2021/09/14 05:39:48;;;;;;;59.47;3.67;;;14.60;3.80;;;;;;5013654;28;20464;-71
2021/09/14 05:42:15;;;;;;;59.30;3.00;;;14.60;3.40;;;;;;5013393;28;20536;-71
2021/09/14 05:44:42;;;;;;;58.37;3.13;;;14.60;3.50;;;;;;5013455;28;20475;-71
2021/09/14 05:47:08;;;;;;;59.00;3.33;;;14.70;3.50;;;;;;5012918;28;20898;-71
2021/09/14 05:49:37;;;;;;;58.37;3.00;;;14.70;4.20;;;;;;5012950;28;20454;-71
2021/09/14 05:52:04;;;;;;;58.47;2.80;;;14.70;3.60;;;;;;5019418;28;20485;-71
2021/09/14 05:54:31;;;;;;;58.33;2.60;;;14.80;3.70;;;;;;5032618;28;20456;-71
2021/09/14 05:56:58;;;;;;;58.50;2.90;;;14.80;4.00;;;;;;5032467;28;20915;-71
2021/09/14 05:59:25;;;;;;;58.40;2.90;;;14.80;3.10;;;;;;5032744;28;20882;-71
2021/09/14 06:01:52;;;;;;;59.53;3.53;;;14.90;2.20;;;;;;5032481;28;20887;-71
2021/09/14 06:04:19;;;;;;;58.37;2.80;;;14.90;1.50;;;;;;5032328;28;20568;-71
2021/09/14 06:06:47;;;;;;;57.87;2.50;;;15.00;1.30;;;;;;5032194;28;20646;-71
2021/09/14 06:09:13;;;;;;;58.47;3.20;;;15.00;2.10;;;;;;5032658;28;20457;-71
2021/09/14 06:11:40;;;;;;;59.20;3.83;;;15.10;1.40;;;;;;5032547;28;20825;-71
2021/09/14 06:14:07;;;;;;;58.23;2.80;;;15.10;1.90;;;;;;5032348;28;20452;-71
2021/09/14 06:16:34;;;;;;;58.50;2.80;;;15.10;2.20;;;;;;5031826;28;20484;-71
2021/09/14 06:19:01;;;;;;;58.90;3.13;;;15.20;2.40;;;;;;5032131;28;20450;-69
2021/09/14 06:21:27;;;;;;;58.80;3.20;;;15.20;2.50;;;;;;5032206;28;20456;-71
2021/09/14 06:23:56;;;;;;;58.90;2.90;;;15.30;3.80;;;;;;5019927;28;20482;-71
2021/09/14 06:26:22;;;;;;;58.17;3.00;;;15.30;3.40;;;;;;5012380;28;20548;-72
2021/09/14 06:28:49;;;;;;;58.80;3.20;;;15.30;3.90;;;;;;5012294;28;20557;-71
2021/09/14 06:31:16;;;;;;;58.67;2.93;;;15.40;4.40;;;;;;5012533;28;20541;-72
2021/09/14 06:33:43;;;;;;;58.37;2.80;;;15.40;4.20;;;;;;5012080;28;20450;-71
2021/09/14 06:36:10;;;;;;;58.43;2.80;;;15.50;4.90;;;;;;5011719;28;21050;-71
2021/09/14 06:38:37;;;;;;;58.27;2.40;;;15.50;4.80;;;;;;5012344;28;20538;-71
2021/09/14 06:41:06;;;;;;;58.07;2.60;;;15.60;5.20;;;;;;5012383;28;20915;-71
2021/09/14 06:43:33;;;;;;;58.13;2.57;;;15.70;5.80;;;;;;5012024;28;20538;-71
2021/09/14 06:46:00;;;;;;;58.33;2.90;;;15.70;5.30;;;;;;5011787;28;20486;-71
2021/09/14 06:48:26;;;;;;;58.23;2.60;;;15.80;5.40;;;;;;5012325;28;20546;-71
2021/09/14 06:50:53;;;;;;;59.10;4.33;;;15.90;5.50;;;;;;5011958;28;20451;-71
2021/09/14 06:53:20;;;;;;;58.20;2.50;;;16.00;5.60;;;;;;5012576;28;20547;-71
2021/09/14 06:55:47;;;;;;;58.30;2.60;;;16.10;5.40;;;;;;5010384;28;20940;-71
2021/09/14 06:58:15;;;;;;;58.17;2.50;;;16.20;5.20;;;;;;5011716;28;20458;-71
2021/09/14 07:00:42;;;;;;;58.27;3.00;;;16.30;3.60;;;;;;5011629;28;20448;-71
2021/09/14 07:03:09;;;;;;;58.17;2.80;;;16.40;2.20;;;;;;5011300;28;20535;-70
2021/09/14 07:05:36;;;;;;;60.23;3.40;;;16.50;1.00;;;;;;5012009;28;20484;-71
2021/09/14 07:08:02;;;;;;;59.17;3.43;;;16.60;1.00;;;;;;5011560;28;20464;-71
2021/09/14 07:10:29;;;;;;;58.37;2.90;;;16.70;1.00;;;;;;5011895;28;20564;-71
2021/09/14 07:12:56;;;;;;;57.77;2.60;;;16.80;1.00;;;;;;5011854;28;20459;-71
2021/09/14 07:15:25;;;;;;;58.40;3.03;;;16.90;1.00;;;;;;5011271;28;20545;-71
2021/09/14 07:17:51;;;;;;;58.80;3.90;;;17.00;1.00;;;;;;5011948;28;20505;-71
2021/09/14 07:20:18;;;;;;;58.70;2.90;;;17.10;1.00;;;;;;5011729;28;20547;-71
2021/09/14 07:22:45;;;;;;;58.40;3.00;;;17.30;1.00;;;;;;5011572;28;20465;-71
2021/09/14 07:25:12;;;;;;;58.20;2.90;;;17.40;1.00;;;;;;5011887;28;20579;-71
2021/09/14 07:27:39;;;;;;;58.27;3.10;;;17.50;1.00;;;;;;5020636;28;20475;-71
2021/09/14 07:30:08;;;;;;;57.93;2.90;;;17.60;1.00;;;;;;5031022;28;20877;-71
2021/09/14 07:32:36;;;;;;;58.23;3.27;;;17.70;1.00;;;;;;5030963;28;20531;-71
2021/09/14 07:35:03;;;;;;;58.10;2.70;;;17.80;1.00;;;;;;5031461;28;20448;-71
2021/09/14 07:37:30;;;;;;;58.47;2.60;;;17.90;1.00;;;;;;5030523;28;20487;-71
2021/09/14 07:39:56;;;;;;;57.93;2.60;;;18.10;1.00;;;;;;5031395;28;20982;-71
2021/09/14 07:42:23;;;;;;;58.47;3.43;;;18.20;1.00;;;;;;5030619;28;20536;-71
2021/09/14 07:44:50;;;;;;;58.97;3.93;;;18.30;1.00;;;;;;5031140;28;21179;-71
2021/09/14 07:47:17;;;;;;;58.17;3.20;;;18.40;1.00;;;;;;5031008;28;20465;-71
2021/09/14 07:49:46;;;;;;;58.53;2.90;;;18.50;1.00;;;;;;5031214;28;20628;-71
2021/09/14 07:52:13;;;;;;;57.93;2.50;;;18.70;1.00;;;;;;5031059;28;20455;-71
2021/09/14 07:54:40;;;;;;;58.47;2.70;;;18.80;1.00;;;;;;5030816;28;20963;-71
2021/09/14 07:57:07;;;;;;;59.00;3.20;;;18.90;1.00;;;;;;5030378;28;20469;-71
2021/09/14 07:59:35;;;;;;;58.33;3.43;;;19.10;1.00;;;;;;5017546;28;20450;-71
2021/09/14 08:02:02;;;;;;;58.40;3.10;;;19.20;1.00;;;;;;5011360;28;20476;-71
2021/09/14 08:04:29;;;;;;;58.37;3.07;;;19.30;1.00;;;;;;5010763;28;20502;-71
2021/09/14 08:06:57;;;;;;;58.50;3.23;;;19.40;1.00;;;;;;5011173;28;20558;-71
2021/09/14 08:09:28;;;;;;;58.77;3.70;;;19.50;1.00;;;;;;5010813;28;20486;-71
2021/09/14 08:11:55;;;;;;;57.40;2.50;;;19.60;1.00;;;;;;5011246;28;20505;-71
2021/09/14 08:14:22;;;;;;;57.83;2.60;;;19.80;1.00;;;;;;5011391;28;20489;-71
2021/09/14 08:16:49;;;;;;;57.80;2.63;;;19.90;1.00;;;;;;5014219;28;21056;-71
2021/09/14 08:19:16;;;;;;;58.60;2.90;;;20.00;1.00;;;;;;5014907;28;20452;-71
2021/09/14 08:21:43;;;;;;;58.80;3.00;;;20.10;1.00;;;;;;5014687;28;20545;-71
2021/09/14 08:24:12;;;;;;;58.37;3.00;;;20.20;1.00;;;;;;5014410;28;20538;-71
2021/09/14 08:26:40;;;;;;;58.30;3.10;;;20.30;1.00;;;;;;5014354;28;20483;-71
2021/09/14 08:29:07;;;;;;;58.10;2.60;;;20.40;1.00;;;;;;5014442;28;20471;-71
2021/09/14 08:31:34;;;;;;;59.00;3.20;;;20.50;1.00;;;;;;5013053;28;20451;-71
2021/09/14 08:34:02;;;;;;;57.67;2.70;;;20.60;1.00;;;;;;5014460;28;20457;-71
2021/09/14 08:36:29;;;;;;;58.37;2.80;;;20.80;1.00;;;;;;5013598;28;20479;-71
2021/09/14 08:38:55;;;;;;;58.80;3.00;;;20.90;1.00;;;;;;5014479;28;20495;-71
2021/09/14 08:41:24;;;;;;;58.47;2.93;;;21.00;1.00;;;;;;5014378;28;20450;-71
2021/09/14 08:43:52;;;;;;;59.27;3.20;;;21.20;1.00;;;;;;5014274;28;20540;-71
2021/09/14 08:46:21;;;;;;;57.97;2.57;;;21.30;1.00;;;;;;5013665;28;20527;-71
2021/09/14 08:48:49;;;;;;;57.87;2.70;;;21.40;1.00;;;;;;5014431;28;20779;-71
2021/09/14 08:51:16;;;;;;;58.13;2.50;;;21.50;1.00;;;;;;5014188;28;20491;-71
2021/09/14 08:53:43;;;;;;;57.87;2.70;;;21.70;1.00;;;;;;5014229;28;20894;-71
2021/09/14 08:56:11;;;;;;;58.17;2.90;;;21.80;1.00;;;;;;5013744;28;20502;-71
2021/09/14 08:58:40;;;;;;;58.30;2.70;;;21.90;1.00;;;;;;5013986;28;20449;-71
2021/09/14 09:01:11;;;;;;;58.13;2.50;;;22.00;1.00;;;;;;5013802;28;20456;-71
2021/09/14 09:03:38;;;;;;;57.60;2.40;;;22.20;1.00;;;;;;5012477;28;20959;-71
2021/09/14 09:06:06;;;;;;;58.50;2.70;;;22.30;1.00;;;;;;5013442;28;20866;-71
2021/09/14 09:08:34;;;;;;;57.90;2.33;;;22.50;1.00;;;;;;5014212;28;20446;-71
2021/09/14 09:11:03;;;;;;;57.97;2.33;;;22.60;1.00;;;;;;5014244;28;20533;-71
2021/09/14 09:13:31;;;;;;;59.00;2.60;;;22.80;1.00;;;;;;5013656;28;20504;-71
2021/09/14 09:15:59;;;;;;;58.50;3.00;;;23.00;1.00;;;;;;5013359;28;20450;-70
2021/09/14 09:18:26;;;;;;;58.07;3.00;;;23.10;1.00;;;;;;5013782;28;20546;-70
2021/09/14 09:21:01;;;;;;;58.30;2.90;;;23.30;1.00;;;;;;5013787;28;20757;-70
2021/09/14 09:23:28;;;;;;;59.70;3.00;;;23.50;1.00;;;;;;5013745;28;20936;-71
2021/09/14 09:26:06;;;;;;;57.80;2.40;;;23.70;1.00;;;;;;5012566;28;20496;-70
2021/09/14 09:28:33;;;;;;;58.20;2.40;;;24.00;1.00;;;;;;5013254;28;20494;-71
2021/09/14 09:31:08;;;;;;;58.30;2.90;;;24.20;1.00;;;;;;5013842;28;20453;-71
2021/09/14 09:33:35;;;;;;;58.07;2.67;;;24.40;1.00;;;;;;5013775;28;20454;-71
2021/09/14 09:36:04;;;;;;;59.03;3.63;;;24.50;1.00;;;;;;5011473;28;20486;-71
2021/09/14 09:38:32;;;;;;;58.60;2.87;;;24.60;1.00;;;;;;5013184;28;20446;-71
2021/09/14 09:40:59;;;;;;;58.17;2.40;;;24.80;1.00;;;;;;5013288;28;20541;-71
2021/09/14 09:43:30;;;;;;;58.10;2.30;;;25.10;1.00;;;;;;5013313;28;20540;-70
2021/09/14 09:46:07;;;;;;;58.10;2.33;;;25.30;1.00;;;;;;5012822;28;20593;-70
2021/09/14 09:48:35;;;;;;;58.40;2.80;;;25.60;1.00;;;;;;5013675;28;21007;-70
2021/09/14 09:51:03;;;;;;;58.60;3.00;;;26.10;1.00;;;;;;5017546;28;20464;-70
2021/09/14 09:53:32;;;;;;;57.83;2.40;;;26.70;1.00;;;;;;5017910;28;20454;-70
2021/09/14 09:55:59;;;;;;;57.87;2.53;;;27.40;1.00;;;;;;5017950;28;20481;-71
2021/09/14 09:58:27;;;;;;;57.87;2.50;;;28.40;1.00;;;;;;5018175;28;20482;-71
2021/09/14 10:00:58;;;;;;;58.10;2.30;;;29.20;1.00;;;;;;5018722;28;20548;-71
2021/09/14 10:03:31;;;;;;;57.77;2.50;;;30.00;1.00;;;;;;5018591;28;20515;-71
2021/09/14 10:06:01;;;;;;;58.00;2.50;;;30.70;1.00;;;;;;5017473;28;20482;-70
2021/09/14 10:08:29;;;;;;;57.60;2.50;;;31.50;1.00;;;;;;5035011;28;20449;-70
2021/09/14 10:10:57;;;;;;;57.57;2.33;;;32.50;1.00;;;;;;5035842;28;20540;-70
2021/09/14 10:13:31;;;;;;;58.20;2.50;;;33.10;1.00;;;;;;5032388;28;20455;-70
2021/09/14 10:15:57;;;;;;;57.13;2.00;;;33.70;1.00;;;;;;5031999;28;20484;-70
2021/09/14 10:18:29;;;;;;;57.60;2.23;;;34.20;1.00;;;;;;5032145;28;20548;-71
2021/09/14 10:20:56;;;;;;;58.40;2.67;;;34.30;1.00;;;;;;5032305;28;20483;-71
2021/09/14 10:23:24;;;;;;;57.50;2.47;;;34.00;1.00;;;;;;5032356;28;20532;-70
2021/09/14 10:26:03;;;;;;;57.07;2.23;;;33.70;1.00;;;;;;5031915;28;20504;-71
2021/09/14 10:28:42;;;;;;;57.40;2.37;;;33.80;1.00;;;;;;5032009;28;20460;-68
2021/09/14 10:31:23;;;;;;;57.30;2.20;;;34.10;1.00;;;;;;5032044;28;20457;-71
2021/09/14 10:34:03;;;;;;;57.37;2.23;;;34.60;1.00;;;;;;5032340;28;20871;-70
2021/09/14 10:36:30;;;;;;;57.27;2.20;;;35.10;1.00;;;;;;5031597;28;20461;-68
2021/09/14 10:38:57;;;;;;;58.00;3.00;;;35.50;1.00;;;;;;5023069;28;20458;-68
2021/09/14 10:41:35;;;;;;;57.17;2.80;;;35.70;1.00;;;;;;5012015;28;20454;-70
2021/09/14 10:44:03;;;;;;;58.10;2.43;;;35.80;1.00;;;;;;5012475;28;20456;-69
2021/09/14 10:46:31;;;;;;;56.93;2.23;;;36.10;1.00;;;;;;5011908;28;20490;-69
2021/09/14 10:48:58;;;;;;;57.50;2.00;;;36.50;1.00;;;;;;5011887;28;20509;-69
2021/09/14 10:51:26;;;;;;;57.60;2.30;;;36.50;1.00;;;;;;5012117;28;20484;-69
2021/09/14 10:53:54;;;;;;;57.20;2.40;;;36.50;1.00;;;;;;5011945;28;20489;-70
2021/09/14 10:56:21;;;;;;;57.33;2.77;;;36.80;1.00;;;;;;5011448;28;20506;-69
2021/09/14 10:58:49;;;;;;;57.43;2.93;;;37.20;1.00;;;;;;5012113;28;20529;-69
2021/09/14 11:01:22;;;;;;;57.50;2.30;;;37.50;1.00;;;;;;5011847;28;20460;-69
2021/09/14 11:04:04;;;;;;;57.20;2.80;;;37.60;1.00;;;;;;5011896;28;20950;-69
2021/09/14 11:06:34;;;;;;;57.07;2.13;;;37.50;1.00;;;;;;5011167;28;20509;-69
2021/09/14 11:09:02;;;;;;;57.10;2.30;;;37.40;1.00;;;;;;5011599;28;20450;-69
2021/09/14 11:11:29;;;;;;;56.87;2.13;;;37.50;1.00;;;;;;5021184;28;20460;-69
2021/09/14 11:13:57;;;;;;;56.87;2.00;;;37.70;1.00;;;;;;5031704;28;20548;-69
2021/09/14 11:16:24;;;;;;;57.50;3.00;;;37.60;1.00;;;;;;5030885;28;20556;-69
2021/09/14 11:18:52;;;;;;;57.00;2.40;;;37.40;1.00;;;;;;5031310;28;21000;-70
2021/09/14 11:21:20;;;;;;;57.23;2.57;;;37.50;1.00;;;;;;5030965;28;20541;-69
2021/09/14 11:23:50;;;;;;;57.13;2.43;;;37.70;1.00;;;;;;5031479;28;20452;-69
2021/09/14 11:26:18;;;;;;;58.60;2.47;;;37.70;1.00;;;;;;5030865;28;20495;-69
2021/09/14 11:28:55;;;;;;;57.70;2.80;;;37.80;1.00;;;;;;5031352;28;20475;-69
2021/09/14 11:31:22;;;;;;;57.07;2.67;;;37.80;1.00;;;;;;5031485;28;20540;-70
2021/09/14 11:33:50;;;;;;;57.20;2.43;;;37.90;1.00;;;;;;5031133;28;20445;-69
2021/09/14 11:36:17;;;;;;;58.00;2.90;;;38.20;1.00;;;;;;5031058;28;20460;-69
2021/09/14 11:38:43;;;;;;;58.53;2.67;;;38.60;1.00;;;;;;5031446;28;20545;-69
2021/09/14 11:41:13;;;;;;;57.50;2.57;;;39.00;1.00;;;;;;5030904;28;20544;-69
2021/09/14 11:43:42;;;;;;;56.90;2.30;;;39.50;1.00;;;;;;5022283;28;20603;-70
2021/09/14 11:46:14;;;;;;;57.10;2.43;;;40.00;1.00;;;;;;5010647;28;20490;-70
2021/09/14 11:48:42;;;;;;;57.63;2.73;;;40.40;1.00;;;;;;5011482;28;20541;-69
2021/09/14 11:51:10;;;;;;;56.87;2.40;;;40.50;1.00;;;;;;5014243;28;20485;-69
2021/09/14 11:53:39;;;;;;;58.33;2.70;;;40.20;1.00;;;;;;5015244;28;20533;-69
2021/09/14 11:56:13;;;;;;;56.93;2.57;;;40.00;1.00;;;;;;5014823;28;20446;-70
2021/09/14 11:58:43;;;;;;;57.00;2.70;;;39.70;1.00;;;;;;5015251;28;21035;-69
2021/09/14 12:01:10;;;;;;;57.00;2.53;;;39.10;1.00;;;;;;5014976;28;20474;-69
2021/09/14 12:03:39;;;;;;;56.97;2.30;;;38.30;1.00;;;;;;5015395;28;20541;-69
2021/09/14 12:06:07;;;;;;;58.13;2.87;;;37.60;1.00;;;;;;5014663;28;20525;-69
2021/09/14 12:08:35;;;;;;;57.83;2.77;;;36.80;1.00;;;;;;5015455;28;20450;-69
2021/09/14 12:11:04;;;;;;;57.30;2.20;;;36.00;1.00;;;;;;5014808;28;20548;-69
2021/09/14 12:13:39;;;;;;;57.70;2.37;;;35.20;1.00;;;;;;5015125;28;20456;-69
2021/09/14 12:16:09;;;;;;;57.83;2.80;;;34.40;1.00;;;;;;5013447;28;20453;-69
2021/09/14 12:18:37;;;;;;;57.70;2.57;;;33.70;1.00;;;;;;5014847;28;20557;-69
2021/09/14 12:21:04;;;;;;;58.70;2.97;;;33.10;1.00;;;;;;5014606;28;21049;-69
2021/09/14 12:23:32;;;;;;;57.60;2.53;;;33.00;1.00;;;;;;5014906;28;20964;-69
2021/09/14 12:25:59;;;;;;;57.43;2.60;;;33.30;1.00;;;;;;5014285;28;20450;-69
2021/09/14 12:28:26;;;;;;;59.40;2.90;;;33.60;1.00;;;;;;5014724;28;20457;-69
2021/09/14 12:30:54;;;;;;;57.27;2.60;;;33.50;1.00;;;;;;5014636;28;20450;-69
2021/09/14 12:33:21;;;;;;;58.63;3.13;;;33.20;1.00;;;;;;5014592;28;20820;-69
2021/09/14 12:35:48;;;;;;;57.30;2.23;;;33.00;1.00;;;;;;5014523;28;20452;-69
2021/09/14 12:38:15;;;;;;;57.30;2.10;;;32.80;1.00;;;;;;5014201;28;20457;-69
2021/09/14 12:40:42;;;;;;;57.50;2.10;;;32.70;1.00;;;;;;5014639;28;20453;-69
2021/09/14 12:43:09;;;;;;;58.03;2.77;;;32.70;1.00;;;;;;5014917;28;20500;-69
2021/09/14 12:45:36;;;;;;;58.20;2.47;;;32.90;1.00;;;;;;5014165;28;20910;-69
2021/09/14 12:48:05;;;;;;;57.60;2.43;;;33.20;1.00;;;;;;5012689;28;20580;-69
2021/09/14 12:50:31;;;;;;;57.70;2.30;;;33.30;1.00;;;;;;5013928;28;20473;-69
2021/09/14 12:52:58;;;;;;;57.77;2.43;;;33.40;1.00;;;;;;5013676;28;20457;-69
2021/09/14 12:55:25;;;;;;;57.47;2.33;;;33.40;1.00;;;;;;5014247;28;20461;-69
2021/09/14 12:57:53;;;;;;;57.80;2.40;;;33.30;1.00;;;;;;5013668;28;20494;-69
2021/09/14 13:00:20;;;;;;;57.70;2.40;;;33.20;1.00;;;;;;5013888;28;20454;-69
2021/09/14 13:02:46;;;;;;;57.57;2.30;;;33.00;1.00;;;;;;5013081;28;20533;-69
2021/09/14 13:05:15;;;;;;;60.23;3.30;;;32.80;1.00;;;;;;5013816;28;20454;-69
2021/09/14 13:07:42;;;;;;;57.80;2.43;;;32.70;1.00;;;;;;5013919;28;20573;-69
2021/09/14 13:10:12;;;;;;;57.70;2.30;;;32.60;1.00;;;;;;5014044;28;20533;-69
2021/09/14 13:12:46;;;;;;;58.00;2.10;;;32.50;1.00;;;;;;5013633;28;20965;-69
2021/09/14 13:17:57;;;;;;;59.40;3.07;;;32.50;1.00;;;;;;5013465;28;20453;-69
2021/09/14 13:20:25;;;;;;;57.53;2.17;;;32.80;1.00;;;;;;5012457;28;20446;-69
2021/09/14 13:22:52;;;;;;;57.40;2.10;;;33.20;1.00;;;;;;5013623;28;20486;-69
2021/09/14 13:25:19;;;;;;;57.80;2.70;;;33.50;1.00;;;;;;5013303;28;20532;-70
2021/09/14 13:27:46;;;;;;;57.83;2.77;;;33.80;1.00;;;;;;5012706;28;20494;-69
2021/09/14 13:30:13;;;;;;;57.70;2.40;;;34.10;1.00;;;;;;5012782;28;20461;-69
2021/09/14 13:32:40;;;;;;;57.67;2.83;;;34.80;1.00;;;;;;5012996;28;20632;-69
2021/09/14 13:35:08;;;;;;;57.30;2.20;;;35.70;1.00;;;;;;5013296;28;20478;-69
2021/09/14 13:37:36;;;;;;;57.70;2.50;;;36.40;1.00;;;;;;5012891;28;20466;-69
2021/09/14 13:40:04;;;;;;;57.30;2.83;;;36.80;1.00;;;;;;5013137;28;20446;-69
2021/09/14 13:42:31;;;;;;;57.47;2.60;;;36.90;1.00;;;;;;5013045;28;20453;-69
2021/09/14 13:47:43;;;;;;;57.87;2.40;;;37.10;1.00;;;;;;5012857;28;20515;-69